CheckWX is a tool to help pilots better visualize weather data.  It is not intended as a substitute for an official pre-flight weather briefing.

20:01:08 UTC

KBUR METAR
Bob Hope Airport
Burbank, California, USA
Current

1 hour ago

KBUR 061853Z 16005KT 10SM CLR 32/11 A2989 RMK AO2 SLP106 T03170111
Observed
Jul-6 @ 18:53 UTC
Wind
  • 160° at 5 KTS
Visibility
10 SM
Flight Rules
VFR
Cloud Levels
  • Clear skies
Temperature
32°C / 90°F
Dewpoint
11°C / 52°F
Humidity
27%
Altimeter
29.89" Hg
Pressure
1012.22 hPa
Previous

2 hours ago

KBUR 061753Z 15008KT 10SM CLR 29/08 A2989 RMK AO2 SLP107 T02940083 10294 20183 51003
Observed
Jul-6 @ 17:53 UTC
Wind
  • 150° at 8 KTS
Visibility
10 SM
Flight Rules
VFR
Cloud Levels
  • Clear skies
Temperature
29°C / 84°F
Dewpoint
C / 46°F
Humidity
27%
Altimeter
29.89" Hg
Pressure
1012.22 hPa
Previous

3 hours ago

KBUR 061653Z VRB03KT 10SM CLR 27/10 A2989 RMK AO2 SLP106 T02720100
Observed
Jul-6 @ 16:53 UTC
Wind
  • Variable at 3 KTS
Visibility
10 SM
Flight Rules
VFR
Cloud Levels
  • Clear skies
Temperature
27°C / 81°F
Dewpoint
10°C / 50°F
Humidity
34%
Altimeter
29.89" Hg
Pressure
1012.22 hPa